createdAt,value
2022-12-31T00:01:10.207Z,13.33
2022-12-31T00:03:40.097Z,13.87
2022-12-31T00:06:15.679Z,13.17
2022-12-31T00:08:43.369Z,13.87
2022-12-31T00:11:10.894Z,12.57
2022-12-31T00:13:38.554Z,14.63
2022-12-31T00:16:12.362Z,14.20
2022-12-31T00:18:44.531Z,13.60
2022-12-31T00:21:12.660Z,13.43
2022-12-31T00:23:40.414Z,13.27
2022-12-31T00:26:09.545Z,15.23
2022-12-31T00:28:38.118Z,12.60
2022-12-31T00:31:07.753Z,14.07
2022-12-31T00:33:35.306Z,13.10
2022-12-31T00:36:12.659Z,13.63
2022-12-31T00:38:41.091Z,13.03
2022-12-31T00:41:08.684Z,12.33
2022-12-31T00:43:36.512Z,13.40
2022-12-31T00:46:04.988Z,13.50
2022-12-31T00:48:32.872Z,15.03
2022-12-31T00:51:01.175Z,14.30
2022-12-31T00:53:30.572Z,13.30
2022-12-31T00:56:01.729Z,13.70
2022-12-31T00:58:29.370Z,14.23
2022-12-31T01:00:57.027Z,14.50
2022-12-31T01:03:24.810Z,16.17
2022-12-31T01:05:53.230Z,15.70
2022-12-31T01:08:20.736Z,14.87
2022-12-31T01:11:10.879Z,14.03
2022-12-31T01:13:38.428Z,15.37
2022-12-31T01:16:10.159Z,14.27
2022-12-31T01:18:38.513Z,15.07
2022-12-31T01:21:07.981Z,14.73
2022-12-31T01:23:35.857Z,15.97
2022-12-31T01:26:06.340Z,14.30
2022-12-31T01:28:34.806Z,13.73
2022-12-31T01:31:05.446Z,15.23
2022-12-31T01:33:33.494Z,13.73
2022-12-31T01:36:04.879Z,13.90
2022-12-31T01:38:32.427Z,15.10
2022-12-31T01:41:00.255Z,15.87
2022-12-31T01:43:46.335Z,13.80
2022-12-31T01:46:15.676Z,13.43
2022-12-31T01:48:43.685Z,13.93
2022-12-31T01:51:11.438Z,13.73
2022-12-31T01:53:40.936Z,13.57
2022-12-31T01:56:08.624Z,13.57
2022-12-31T01:58:39.083Z,13.00
2022-12-31T02:01:08.938Z,14.03
2022-12-31T02:03:36.683Z,13.87
2022-12-31T02:06:08.311Z,14.17
2022-12-31T02:08:41.845Z,14.07
2022-12-31T02:11:25.864Z,14.30
2022-12-31T02:13:58.337Z,12.77
2022-12-31T02:16:32.790Z,12.07
2022-12-31T02:19:07.465Z,11.73
2022-12-31T02:21:52.703Z,13.40
2022-12-31T02:24:49.443Z,13.77
2022-12-31T02:27:26.070Z,12.67
2022-12-31T02:30:08.519Z,12.73
2022-12-31T02:32:43.520Z,13.63
2022-12-31T02:35:14.391Z,12.43
2022-12-31T02:37:44.954Z,13.10
2022-12-31T02:40:16.065Z,13.17
2022-12-31T02:42:43.587Z,13.63
2022-12-31T02:45:14.753Z,14.43
2022-12-31T02:47:51.486Z,13.00
2022-12-31T02:50:30.266Z,13.27
2022-12-31T02:53:06.713Z,13.57
2022-12-31T02:55:39.116Z,13.63
2022-12-31T02:58:12.104Z,13.57
2022-12-31T03:01:03.422Z,13.30
2022-12-31T03:03:32.064Z,14.47
2022-12-31T03:06:01.448Z,16.27
2022-12-31T03:08:29.457Z,13.20
2022-12-31T03:10:57.269Z,13.13
2022-12-31T03:13:24.137Z,12.07
2022-12-31T03:15:53.007Z,12.70
2022-12-31T03:18:41.843Z,12.97
2022-12-31T03:21:30.705Z,12.73
2022-12-31T03:24:16.208Z,12.43
2022-12-31T03:26:43.728Z,13.27
2022-12-31T03:29:11.280Z,12.80
2022-12-31T03:31:40.162Z,13.30
2022-12-31T03:34:07.672Z,12.20
2022-12-31T03:36:35.193Z,12.80
2022-12-31T03:39:02.707Z,13.17
2022-12-31T03:41:30.725Z,12.83
2022-12-31T03:43:58.232Z,12.57
2022-12-31T03:46:25.781Z,12.23
2022-12-31T03:48:54.643Z,11.87
2022-12-31T03:51:22.150Z,12.37
2022-12-31T03:53:49.675Z,11.63
2022-12-31T03:56:17.202Z,12.90
2022-12-31T03:58:44.792Z,11.60
2022-12-31T04:01:12.398Z,11.83
2022-12-31T04:03:39.973Z,12.30
2022-12-31T04:06:08.919Z,11.90
2022-12-31T04:08:36.542Z,12.47
2022-12-31T04:11:04.487Z,10.40
2022-12-31T04:13:32.018Z,10.73
2022-12-31T04:15:59.579Z,12.50
2022-12-31T04:18:27.210Z,11.70
2022-12-31T04:20:54.957Z,11.40
2022-12-31T04:23:23.795Z,12.13
2022-12-31T04:25:51.322Z,12.77
2022-12-31T04:28:18.872Z,13.17
2022-12-31T04:30:46.401Z,12.83
2022-12-31T04:33:13.940Z,12.07
2022-12-31T04:35:41.478Z,12.03
2022-12-31T04:38:09.004Z,12.07
2022-12-31T04:40:58.595Z,12.77
2022-12-31T04:43:26.205Z,12.53
2022-12-31T04:45:53.818Z,12.87
2022-12-31T04:48:21.370Z,12.40
2022-12-31T04:50:48.932Z,11.43
2022-12-31T04:53:16.466Z,11.00
2022-12-31T04:55:46.290Z,10.97
2022-12-31T04:58:13.880Z,11.17
2022-12-31T05:00:41.448Z,11.07
2022-12-31T05:03:09.140Z,10.73
2022-12-31T05:05:39.707Z,11.00
2022-12-31T05:08:07.750Z,10.50
2022-12-31T05:10:35.285Z,9.77
2022-12-31T05:13:04.550Z,10.43
2022-12-31T05:15:32.244Z,9.37
2022-12-31T05:17:59.825Z,8.80
2022-12-31T05:20:27.396Z,9.47
2022-12-31T05:22:54.898Z,9.10
2022-12-31T05:25:22.690Z,9.20
2022-12-31T05:27:50.218Z,9.40
2022-12-31T05:30:19.933Z,8.43
2022-12-31T05:32:47.870Z,8.40
2022-12-31T05:35:16.892Z,7.87
2022-12-31T05:37:44.712Z,7.37
2022-12-31T05:40:12.788Z,8.53
2022-12-31T05:42:40.932Z,7.60
2022-12-31T05:45:09.495Z,7.23
2022-12-31T05:47:38.372Z,6.97
2022-12-31T05:50:06.994Z,7.53
2022-12-31T05:52:34.527Z,6.20
2022-12-31T05:55:02.027Z,5.90
2022-12-31T05:57:29.613Z,8.20
2022-12-31T05:59:57.133Z,6.87
2022-12-31T06:02:24.719Z,6.57
2022-12-31T06:04:54.525Z,10.17
2022-12-31T06:07:22.057Z,7.07
2022-12-31T06:09:49.905Z,7.10
2022-12-31T06:12:17.610Z,6.90
2022-12-31T06:14:45.930Z,6.63
2022-12-31T06:17:13.687Z,6.43
2022-12-31T06:19:41.211Z,6.20
2022-12-31T06:22:10.210Z,6.00
2022-12-31T06:24:37.768Z,5.50
2022-12-31T06:27:05.293Z,6.07
2022-12-31T06:29:32.793Z,5.13
2022-12-31T06:32:00.379Z,5.40
2022-12-31T06:34:27.920Z,5.80
2022-12-31T06:36:55.475Z,5.40
2022-12-31T06:39:24.516Z,5.60
2022-12-31T06:41:52.056Z,5.77
2022-12-31T06:44:22.304Z,5.60
2022-12-31T06:46:50.242Z,5.77
2022-12-31T06:49:18.335Z,5.20
2022-12-31T06:51:47.736Z,5.40
2022-12-31T06:54:15.279Z,5.30
2022-12-31T06:56:44.822Z,4.90
2022-12-31T06:59:26.668Z,4.57
2022-12-31T07:02:04.592Z,4.60
2022-12-31T07:04:56.628Z,6.00
2022-12-31T07:07:27.754Z,4.20
2022-12-31T07:10:00.397Z,4.47
2022-12-31T07:12:40.213Z,4.53
2022-12-31T07:15:13.174Z,4.07
2022-12-31T07:17:47.965Z,4.37
2022-12-31T07:20:17.434Z,4.13
2022-12-31T07:22:45.890Z,4.40
2022-12-31T07:25:14.923Z,4.93
2022-12-31T07:28:03.656Z,4.20
2022-12-31T07:30:37.054Z,4.07
2022-12-31T07:33:16.346Z,4.10
2022-12-31T07:35:52.576Z,4.53
2022-12-31T07:38:25.945Z,4.27
2022-12-31T07:41:05.526Z,4.97
2022-12-31T07:43:47.897Z,4.53
2022-12-31T07:46:20.768Z,8.40
2022-12-31T07:48:48.897Z,5.40
2022-12-31T07:51:17.348Z,5.70
2022-12-31T07:53:44.901Z,5.07
2022-12-31T07:56:12.559Z,5.67
2022-12-31T07:58:52.566Z,5.73
2022-12-31T08:01:29.897Z,5.67
2022-12-31T08:04:03.931Z,5.30
2022-12-31T08:06:38.041Z,5.60
2022-12-31T08:09:09.560Z,6.07
2022-12-31T08:11:41.771Z,7.57
2022-12-31T08:14:13.532Z,5.37
2022-12-31T08:16:41.854Z,5.07
2022-12-31T08:19:14.859Z,5.10
2022-12-31T08:21:50.089Z,5.73
2022-12-31T08:24:24.720Z,5.67
2022-12-31T08:26:59.985Z,5.13
2022-12-31T08:29:36.468Z,4.80
2022-12-31T08:32:10.821Z,4.63
2022-12-31T08:34:45.587Z,4.63
2022-12-31T08:37:16.352Z,4.77
2022-12-31T08:39:58.415Z,5.73
2022-12-31T08:42:31.118Z,4.83
2022-12-31T08:45:05.459Z,5.20
2022-12-31T08:47:39.229Z,6.53
2022-12-31T08:50:13.492Z,8.60
2022-12-31T08:52:41.764Z,6.93
2022-12-31T08:55:14.779Z,5.07
2022-12-31T08:57:47.541Z,4.83
2022-12-31T09:00:18.921Z,4.07
2022-12-31T09:03:11.169Z,4.30
2022-12-31T09:05:52.981Z,4.00
2022-12-31T09:08:26.120Z,3.17
2022-12-31T09:10:58.686Z,3.33
2022-12-31T09:13:34.043Z,3.17
2022-12-31T09:16:08.586Z,3.00
2022-12-31T09:18:39.977Z,2.90
2022-12-31T09:21:09.890Z,2.93
2022-12-31T09:23:38.203Z,4.27
2022-12-31T09:26:16.887Z,2.73
2022-12-31T09:28:49.641Z,2.83
2022-12-31T09:31:23.280Z,2.73
2022-12-31T09:33:52.899Z,2.50
2022-12-31T09:36:23.617Z,2.83
2022-12-31T09:38:54.858Z,2.93
2022-12-31T09:41:45.973Z,5.83
2022-12-31T09:44:52.109Z,3.33
2022-12-31T09:47:46.855Z,2.53
2022-12-31T09:50:28.410Z,2.43
2022-12-31T09:53:07.997Z,2.33
2022-12-31T09:55:39.031Z,3.03
2022-12-31T09:58:16.528Z,2.87
2022-12-31T10:00:45.758Z,2.57
2022-12-31T10:03:36.908Z,2.43
2022-12-31T10:06:17.891Z,3.30
2022-12-31T10:09:08.330Z,2.53
2022-12-31T10:11:53.500Z,2.53
2022-12-31T10:14:30.598Z,5.70
2022-12-31T10:17:07.237Z,2.50
2022-12-31T10:19:48.543Z,1.90
2022-12-31T10:22:39.045Z,1.80
2022-12-31T10:25:21.534Z,2.40
2022-12-31T10:28:07.978Z,4.40
2022-12-31T10:30:36.687Z,2.10
2022-12-31T10:33:09.528Z,1.57
2022-12-31T10:35:44.099Z,2.20
2022-12-31T10:38:21.747Z,2.90
2022-12-31T10:41:22.065Z,2.20
2022-12-31T10:44:10.172Z,3.23
2022-12-31T10:46:49.723Z,2.57
2022-12-31T10:50:05.803Z,2.50
2022-12-31T10:52:56.336Z,2.50
2022-12-31T10:56:08.575Z,1.80
2022-12-31T10:59:06.411Z,2.23
2022-12-31T11:01:43.456Z,2.90
2022-12-31T11:04:29.151Z,5.97
2022-12-31T11:07:16.187Z,9.97
2022-12-31T11:09:59.623Z,2.20
2022-12-31T11:12:46.983Z,3.63
2022-12-31T11:15:19.784Z,2.10
2022-12-31T11:17:55.875Z,2.30
2022-12-31T11:20:46.902Z,3.17
2022-12-31T11:23:25.518Z,2.23
2022-12-31T11:26:05.255Z,2.40
2022-12-31T11:28:51.263Z,2.97
2022-12-31T11:31:28.539Z,2.27
2022-12-31T11:34:10.692Z,1.97
2022-12-31T11:36:43.304Z,2.43
2022-12-31T11:39:41.190Z,2.13
2022-12-31T11:42:20.707Z,1.90
2022-12-31T11:44:53.094Z,1.73
2022-12-31T11:47:49.652Z,11.77
2022-12-31T11:50:31.966Z,2.70
2022-12-31T11:53:08.932Z,2.90
2022-12-31T11:55:44.594Z,2.43
2022-12-31T11:58:16.239Z,2.27
2022-12-31T12:00:47.001Z,2.20
2022-12-31T12:03:14.616Z,1.53
2022-12-31T12:05:42.430Z,1.80
2022-12-31T12:08:09.966Z,1.03
2022-12-31T12:10:39.873Z,1.40
2022-12-31T12:13:16.028Z,1.40
2022-12-31T12:15:47.250Z,1.17
2022-12-31T12:18:27.685Z,0.70
2022-12-31T12:21:02.827Z,1.23
2022-12-31T12:23:30.446Z,1.00
2022-12-31T12:25:57.972Z,1.00
2022-12-31T12:28:37.416Z,1.87
2022-12-31T12:31:08.470Z,1.00
2022-12-31T12:33:43.388Z,0.90
2022-12-31T12:36:12.312Z,1.10
2022-12-31T12:38:39.994Z,0.90
2022-12-31T12:41:12.176Z,18.53
2022-12-31T12:43:41.523Z,7.37
2022-12-31T12:46:22.331Z,1.20
2022-12-31T12:48:55.277Z,1.70
2022-12-31T12:51:31.748Z,2.03
2022-12-31T12:54:03.966Z,1.73
2022-12-31T12:56:38.284Z,2.00
2022-12-31T12:59:26.083Z,1.67
2022-12-31T13:01:59.070Z,7.93
2022-12-31T13:04:52.412Z,2.33
2022-12-31T13:07:27.736Z,2.13
2022-12-31T13:10:05.390Z,2.00
2022-12-31T13:13:05.329Z,2.43
2022-12-31T13:15:30.675Z,2.10
2022-12-31T13:18:06.094Z,1.57
2022-12-31T13:20:39.247Z,1.93
2022-12-31T13:23:14.593Z,1.67
2022-12-31T13:25:54.812Z,3.03
2022-12-31T13:28:23.940Z,2.00
2022-12-31T13:30:57.529Z,1.60
2022-12-31T13:33:32.128Z,2.00
2022-12-31T13:36:00.627Z,2.30
2022-12-31T13:38:30.822Z,3.83
2022-12-31T13:41:02.224Z,7.33
2022-12-31T13:43:37.656Z,1.87
2022-12-31T13:46:12.015Z,2.17
2022-12-31T13:48:45.888Z,1.67
2022-12-31T13:51:17.069Z,1.63
2022-12-31T13:53:50.124Z,2.63
2022-12-31T13:56:21.886Z,2.70
2022-12-31T13:58:53.101Z,2.23
2022-12-31T14:01:30.691Z,2.10
2022-12-31T14:04:06.033Z,1.90
2022-12-31T14:06:37.692Z,2.93
2022-12-31T14:09:05.978Z,2.73
2022-12-31T14:11:51.327Z,2.40
2022-12-31T14:14:26.638Z,2.83
2022-12-31T14:16:59.819Z,2.20
2022-12-31T14:19:41.335Z,3.23
2022-12-31T14:22:14.500Z,2.13
2022-12-31T14:24:45.872Z,2.40
2022-12-31T14:27:18.200Z,2.60
2022-12-31T14:29:49.112Z,2.83
2022-12-31T14:32:34.992Z,3.50
2022-12-31T14:35:14.988Z,2.50
2022-12-31T14:37:47.731Z,2.30
2022-12-31T14:40:20.280Z,2.80
2022-12-31T14:42:57.031Z,2.60
2022-12-31T14:45:34.331Z,5.17
2022-12-31T14:48:07.867Z,2.33
2022-12-31T14:50:35.583Z,5.23
2022-12-31T14:53:22.774Z,2.67
2022-12-31T14:55:58.269Z,3.00
2022-12-31T14:58:32.152Z,2.63
2022-12-31T15:01:01.031Z,3.17
2022-12-31T15:03:41.401Z,2.47
2022-12-31T15:06:28.751Z,4.23
2022-12-31T15:09:08.177Z,4.20
2022-12-31T15:11:46.791Z,2.70
2022-12-31T15:14:39.387Z,3.20
2022-12-31T15:17:17.252Z,3.37
2022-12-31T15:20:17.614Z,6.63
2022-12-31T15:22:46.336Z,5.00
2022-12-31T15:25:23.721Z,4.43
2022-12-31T15:27:51.694Z,6.30
2022-12-31T15:30:39.084Z,4.57
2022-12-31T15:33:09.230Z,3.70
2022-12-31T15:35:49.961Z,4.83
2022-12-31T15:38:35.552Z,4.93
2022-12-31T15:41:15.216Z,4.53
2022-12-31T15:43:46.625Z,4.90
2022-12-31T15:46:17.762Z,6.03
2022-12-31T15:48:52.108Z,4.47
2022-12-31T15:51:24.046Z,4.40
2022-12-31T15:53:53.494Z,4.40
2022-12-31T15:56:27.398Z,4.20
2022-12-31T15:58:58.758Z,5.33
2022-12-31T16:01:29.960Z,4.77
2022-12-31T16:03:59.188Z,7.20
2022-12-31T16:06:30.664Z,7.53
2022-12-31T16:08:58.532Z,9.67
2022-12-31T16:11:29.939Z,7.80
2022-12-31T16:13:58.620Z,10.90
2022-12-31T16:16:27.848Z,5.00
2022-12-31T16:18:57.460Z,6.53
2022-12-31T16:21:28.468Z,7.53
2022-12-31T16:23:57.618Z,10.07
2022-12-31T16:26:29.357Z,10.03
2022-12-31T16:28:59.893Z,7.25
2022-12-31T16:31:29.810Z,6.97
2022-12-31T16:34:08.243Z,6.00
2022-12-31T16:36:37.144Z,5.87
2022-12-31T16:39:25.196Z,7.83
2022-12-31T16:41:54.118Z,7.33
2022-12-31T16:44:26.255Z,7.17
2022-12-31T16:46:57.013Z,6.63
2022-12-31T16:49:25.227Z,7.20
2022-12-31T16:51:56.667Z,6.50
2022-12-31T16:54:28.704Z,8.57
2022-12-31T16:56:57.129Z,12.87
2022-12-31T16:59:31.828Z,8.50
2022-12-31T17:02:04.660Z,7.43
2022-12-31T17:04:32.423Z,8.40
2022-12-31T17:07:26.859Z,9.23
2022-12-31T17:10:03.307Z,8.97
2022-12-31T17:12:46.802Z,8.63
2022-12-31T17:15:23.434Z,7.90
2022-12-31T17:17:53.916Z,8.97
2022-12-31T17:20:25.606Z,44.93
2022-12-31T17:22:57.611Z,18.07
2022-12-31T17:25:26.923Z,8.90
2022-12-31T17:27:57.380Z,10.67
2022-12-31T17:30:43.685Z,11.17
2022-12-31T17:33:30.586Z,37.60
2022-12-31T17:36:14.588Z,17.67
2022-12-31T17:38:43.680Z,26.03
2022-12-31T17:41:32.099Z,27.83
2022-12-31T17:43:59.678Z,14.17
2022-12-31T17:46:27.490Z,8.77
2022-12-31T17:48:58.631Z,8.67
2022-12-31T17:51:26.301Z,9.63
2022-12-31T17:53:55.370Z,8.10
2022-12-31T17:56:23.179Z,5.80
2022-12-31T17:58:52.679Z,19.17
2022-12-31T18:01:22.340Z,10.00
2022-12-31T18:03:50.232Z,7.17
2022-12-31T18:06:19.374Z,8.43
2022-12-31T18:08:47.360Z,11.43
2022-12-31T18:11:19.214Z,11.73
2022-12-31T18:13:47.067Z,7.80
2022-12-31T18:16:15.005Z,9.07
2022-12-31T18:18:44.018Z,11.17
2022-12-31T18:21:19.308Z,19.90
2022-12-31T18:23:48.566Z,16.67
2022-12-31T18:26:19.260Z,16.13
2022-12-31T18:28:47.464Z,25.83
2022-12-31T18:31:15.886Z,21.10
2022-12-31T18:33:43.605Z,10.20
2022-12-31T18:36:13.691Z,8.83
2022-12-31T18:38:41.943Z,26.73
2022-12-31T18:41:18.166Z,13.33
2022-12-31T18:43:45.814Z,8.53
2022-12-31T18:46:14.961Z,8.50
2022-12-31T18:48:42.677Z,11.27
2022-12-31T18:51:14.260Z,8.87
2022-12-31T18:53:42.079Z,8.30
2022-12-31T18:56:12.208Z,8.90
2022-12-31T18:58:41.739Z,10.20
2022-12-31T19:01:25.584Z,9.20
2022-12-31T19:03:53.350Z,10.47
2022-12-31T19:06:20.993Z,11.67
2022-12-31T19:08:48.788Z,11.50
2022-12-31T19:11:17.008Z,13.63
2022-12-31T19:13:46.465Z,17.80
2022-12-31T19:16:14.618Z,18.00
2022-12-31T19:18:42.789Z,10.77
2022-12-31T19:21:15.946Z,12.40
2022-12-31T19:23:43.829Z,14.10
2022-12-31T19:26:16.313Z,15.30
2022-12-31T19:28:46.253Z,15.13
2022-12-31T19:31:14.131Z,17.37
2022-12-31T19:33:42.260Z,13.10
2022-12-31T19:36:15.365Z,11.57
2022-12-31T19:38:43.693Z,13.00
2022-12-31T19:41:16.226Z,11.63
2022-12-31T19:43:44.019Z,12.33
2022-12-31T19:46:15.446Z,14.87
2022-12-31T19:48:43.599Z,13.00
2022-12-31T19:51:13.164Z,12.73
2022-12-31T19:53:40.844Z,11.93
2022-12-31T19:56:12.368Z,13.17
2022-12-31T19:58:40.139Z,13.70
2022-12-31T20:01:08.052Z,12.10
2022-12-31T20:03:37.237Z,13.97
2022-12-31T20:06:07.124Z,12.80
2022-12-31T20:08:35.452Z,12.00
2022-12-31T20:11:08.684Z,16.13
2022-12-31T20:13:36.547Z,66.00
2022-12-31T20:16:04.728Z,32.10
2022-12-31T20:18:32.383Z,28.90
2022-12-31T20:21:01.462Z,25.80
2022-12-31T20:23:29.152Z,42.77
2022-12-31T20:25:58.127Z,24.07
2022-12-31T20:28:25.799Z,22.00
2022-12-31T20:30:53.611Z,19.83
2022-12-31T20:33:21.341Z,17.33
2022-12-31T20:35:49.222Z,35.17
2022-12-31T20:38:18.324Z,37.33
2022-12-31T20:40:47.056Z,78.03
2022-12-31T20:43:15.038Z,47.73
2022-12-31T20:45:42.903Z,42.80
2022-12-31T20:48:10.589Z,19.87
2022-12-31T20:50:38.282Z,18.57
2022-12-31T20:53:05.993Z,20.50
2022-12-31T20:55:38.502Z,20.67
2022-12-31T20:58:06.376Z,16.43
2022-12-31T21:00:34.046Z,19.07
2022-12-31T21:03:14.412Z,17.70
2022-12-31T21:05:49.886Z,15.53
2022-12-31T21:08:17.669Z,13.30
2022-12-31T21:10:48.516Z,13.80
2022-12-31T21:13:15.366Z,12.93
2022-12-31T21:15:43.534Z,12.73
2022-12-31T21:18:11.372Z,14.27
2022-12-31T21:20:39.018Z,13.93
2022-12-31T21:23:06.725Z,13.97
2022-12-31T21:25:34.390Z,14.73
2022-12-31T21:28:03.485Z,14.27
2022-12-31T21:30:31.247Z,13.43
2022-12-31T21:32:58.934Z,13.63
2022-12-31T21:35:46.971Z,15.80
2022-12-31T21:38:14.283Z,15.60
2022-12-31T21:40:41.987Z,18.33
2022-12-31T21:43:11.071Z,15.10
2022-12-31T21:45:39.306Z,13.37
2022-12-31T21:48:24.978Z,14.73
2022-12-31T21:50:54.265Z,15.13
2022-12-31T21:53:27.124Z,15.37
2022-12-31T21:56:09.852Z,15.37
2022-12-31T21:58:39.826Z,15.63
2022-12-31T22:01:26.199Z,16.60
2022-12-31T22:03:53.954Z,14.20
2022-12-31T22:06:23.562Z,15.47
2022-12-31T22:08:52.693Z,14.77
2022-12-31T22:11:22.462Z,14.80
2022-12-31T22:13:52.261Z,13.53
2022-12-31T22:16:20.586Z,12.93
2022-12-31T22:18:48.847Z,12.30
2022-12-31T22:21:19.927Z,12.50
2022-12-31T22:23:49.116Z,11.93
2022-12-31T22:26:18.189Z,10.80
2022-12-31T22:28:47.076Z,11.40
2022-12-31T22:31:18.430Z,10.73
2022-12-31T22:33:46.723Z,11.30
2022-12-31T22:36:15.988Z,15.17
2022-12-31T22:38:44.054Z,15.90
2022-12-31T22:41:13.455Z,15.17
2022-12-31T22:43:42.534Z,13.00
2022-12-31T22:46:11.534Z,16.67
2022-12-31T22:48:41.056Z,15.77
2022-12-31T22:51:09.939Z,20.43
2022-12-31T22:53:38.607Z,20.03
2022-12-31T22:56:07.024Z,47.37
2022-12-31T22:58:35.338Z,23.13
2022-12-31T23:01:05.860Z,21.43
2022-12-31T23:03:33.739Z,28.80
2022-12-31T23:06:02.866Z,79.20
2022-12-31T23:08:30.517Z,123.43
2022-12-31T23:11:01.403Z,175.90
2022-12-31T23:13:50.964Z,194.23
2022-12-31T23:16:37.152Z,235.47
2022-12-31T23:19:22.683Z,301.93
2022-12-31T23:22:09.751Z,190.60
2022-12-31T23:24:37.773Z,125.43
2022-12-31T23:27:05.891Z,116.43
2022-12-31T23:29:33.797Z,125.10
2022-12-31T23:32:01.520Z,138.10
2022-12-31T23:34:29.231Z,143.43
2022-12-31T23:36:58.357Z,161.50
2022-12-31T23:39:26.273Z,203.03
2022-12-31T23:41:54.001Z,185.47
2022-12-31T23:44:21.707Z,169.33
2022-12-31T23:46:49.519Z,140.37
2022-12-31T23:49:17.185Z,97.43
2022-12-31T23:51:45.316Z,73.97
2022-12-31T23:54:14.857Z,67.97
2022-12-31T23:56:42.804Z,58.37
2022-12-31T23:59:12.065Z,59.17
